sensor_id;sensor_type;location;lat;lon;timestamp;temperature;humidity
17891;DHT22;9071;48.220;14.480;2023-07-13T00:02:00;18.50;99.90
17891;DHT22;9071;48.220;14.480;2023-07-13T00:07:03;18.50;99.90
17891;DHT22;9071;48.220;14.480;2023-07-13T00:12:23;18.50;99.90
17891;DHT22;9071;48.220;14.480;2023-07-13T00:17:26;18.60;99.90
17891;DHT22;9071;48.220;14.480;2023-07-13T00:22:28;18.60;99.90
17891;DHT22;9071;48.220;14.480;2023-07-13T00:27:32;18.60;99.90
17891;DHT22;9071;48.220;14.480;2023-07-13T00:32:34;18.60;99.90
17891;DHT22;9071;48.220;14.480;2023-07-13T00:37:36;18.50;99.90
17891;DHT22;9071;48.220;14.480;2023-07-13T00:42:40;18.60;99.90
17891;DHT22;9071;48.220;14.480;2023-07-13T00:47:43;18.50;99.90
17891;DHT22;9071;48.220;14.480;2023-07-13T00:52:49;18.50;99.90
17891;DHT22;9071;48.220;14.480;2023-07-13T00:57:54;18.50;99.90
17891;DHT22;9071;48.220;14.480;2023-07-13T01:02:57;18.50;99.90
17891;DHT22;9071;48.220;14.480;2023-07-13T01:07:59;18.50;99.90
17891;DHT22;9071;48.220;14.480;2023-07-13T01:13:04;18.60;99.90
17891;DHT22;9071;48.220;14.480;2023-07-13T01:18:08;18.60;99.90
17891;DHT22;9071;48.220;14.480;2023-07-13T01:23:12;18.50;99.90
17891;DHT22;9071;48.220;14.480;2023-07-13T01:28:14;18.50;99.90
17891;DHT22;9071;48.220;14.480;2023-07-13T01:33:17;18.50;99.90
17891;DHT22;9071;48.220;14.480;2023-07-13T01:38:22;18.50;99.90
17891;DHT22;9071;48.220;14.480;2023-07-13T01:43:25;18.50;99.90
17891;DHT22;9071;48.220;14.480;2023-07-13T01:48:28;18.60;99.90
17891;DHT22;9071;48.220;14.480;2023-07-13T01:53:31;18.60;99.90
17891;DHT22;9071;48.220;14.480;2023-07-13T01:58:33;18.60;99.90
17891;DHT22;9071;48.220;14.480;2023-07-13T02:03:35;18.60;99.90
17891;DHT22;9071;48.220;14.480;2023-07-13T02:08:40;18.60;99.90
17891;DHT22;9071;48.220;14.480;2023-07-13T02:13:43;18.60;99.90
17891;DHT22;9071;48.220;14.480;2023-07-13T02:18:45;18.60;99.90
17891;DHT22;9071;48.220;14.480;2023-07-13T02:23:48;18.60;99.90
17891;DHT22;9071;48.220;14.480;2023-07-13T02:28:51;18.70;99.90
17891;DHT22;9071;48.220;14.480;2023-07-13T02:33:53;18.70;99.90
17891;DHT22;9071;48.220;14.480;2023-07-13T02:39:00;18.70;99.90
17891;DHT22;9071;48.220;14.480;2023-07-13T02:44:03;18.70;99.90
17891;DHT22;9071;48.220;14.480;2023-07-13T02:49:05;18.60;99.90
17891;DHT22;9071;48.220;14.480;2023-07-13T02:54:09;18.60;99.90
17891;DHT22;9071;48.220;14.480;2023-07-13T02:59:14;18.60;99.90
17891;DHT22;9071;48.220;14.480;2023-07-13T03:04:17;18.60;99.90
17891;DHT22;9071;48.220;14.480;2023-07-13T03:09:21;18.60;99.90
17891;DHT22;9071;48.220;14.480;2023-07-13T03:14:23;18.60;99.90
17891;DHT22;9071;48.220;14.480;2023-07-13T03:19:26;18.50;99.90
17891;DHT22;9071;48.220;14.480;2023-07-13T03:24:29;18.40;99.90
17891;DHT22;9071;48.220;14.480;2023-07-13T03:29:31;18.40;99.90
17891;DHT22;9071;48.220;14.480;2023-07-13T03:34:33;18.30;99.90
17891;DHT22;9071;48.220;14.480;2023-07-13T03:39:37;18.30;99.90
17891;DHT22;9071;48.220;14.480;2023-07-13T03:44:39;18.30;99.90
17891;DHT22;9071;48.220;14.480;2023-07-13T03:49:42;18.40;99.90
17891;DHT22;9071;48.220;14.480;2023-07-13T03:54:45;18.50;99.90
17891;DHT22;9071;48.220;14.480;2023-07-13T03:59:47;18.50;99.90
17891;DHT22;9071;48.220;14.480;2023-07-13T04:04:49;18.40;99.90
17891;DHT22;9071;48.220;14.480;2023-07-13T04:09:53;18.50;99.90
17891;DHT22;9071;48.220;14.480;2023-07-13T04:14:55;18.50;99.90
17891;DHT22;9071;48.220;14.480;2023-07-13T04:19:57;18.60;99.90
17891;DHT22;9071;48.220;14.480;2023-07-13T04:25:01;18.60;99.90
17891;DHT22;9071;48.220;14.480;2023-07-13T04:30:03;18.60;99.90
17891;DHT22;9071;48.220;14.480;2023-07-13T04:35:06;18.60;99.90
17891;DHT22;9071;48.220;14.480;2023-07-13T04:40:12;18.70;99.90
17891;DHT22;9071;48.220;14.480;2023-07-13T04:45:14;18.80;99.90
17891;DHT22;9071;48.220;14.480;2023-07-13T04:50:17;18.80;99.90
17891;DHT22;9071;48.220;14.480;2023-07-13T04:55:23;18.90;99.90
17891;DHT22;9071;48.220;14.480;2023-07-13T05:00:25;19.00;99.90
17891;DHT22;9071;48.220;14.480;2023-07-13T05:05:27;19.00;99.90
17891;DHT22;9071;48.220;14.480;2023-07-13T05:10:32;19.10;99.90
17891;DHT22;9071;48.220;14.480;2023-07-13T05:15:34;19.10;99.90
17891;DHT22;9071;48.220;14.480;2023-07-13T05:20:36;19.10;99.90
17891;DHT22;9071;48.220;14.480;2023-07-13T05:25:40;19.30;99.90
17891;DHT22;9071;48.220;14.480;2023-07-13T05:30:45;19.30;99.90
17891;DHT22;9071;48.220;14.480;2023-07-13T05:35:47;19.40;99.90
17891;DHT22;9071;48.220;14.480;2023-07-13T05:40:52;19.50;99.90
17891;DHT22;9071;48.220;14.480;2023-07-13T05:45:56;19.60;99.90
17891;DHT22;9071;48.220;14.480;2023-07-13T05:50:58;19.70;99.90
17891;DHT22;9071;48.220;14.480;2023-07-13T05:56:02;19.80;99.90
17891;DHT22;9071;48.220;14.480;2023-07-13T06:01:06;19.90;99.90
17891;DHT22;9071;48.220;14.480;2023-07-13T06:06:10;20.10;99.90
17891;DHT22;9071;48.220;14.480;2023-07-13T06:11:17;20.20;99.90
17891;DHT22;9071;48.220;14.480;2023-07-13T06:16:19;20.40;99.90
17891;DHT22;9071;48.220;14.480;2023-07-13T06:21:22;20.50;99.90
17891;DHT22;9071;48.220;14.480;2023-07-13T06:26:29;20.60;99.90
17891;DHT22;9071;48.220;14.480;2023-07-13T06:31:32;20.60;99.90
17891;DHT22;9071;48.220;14.480;2023-07-13T06:36:34;20.60;99.90
17891;DHT22;9071;48.220;14.480;2023-07-13T06:41:40;20.60;99.90
17891;DHT22;9071;48.220;14.480;2023-07-13T06:46:42;20.50;99.90
17891;DHT22;9071;48.220;14.480;2023-07-13T06:51:44;20.60;99.90
17891;DHT22;9071;48.220;14.480;2023-07-13T06:56:48;20.70;99.90
17891;DHT22;9071;48.220;14.480;2023-07-13T07:01:50;20.70;99.90
17891;DHT22;9071;48.220;14.480;2023-07-13T07:06:52;20.70;99.90
17891;DHT22;9071;48.220;14.480;2023-07-13T07:11:56;20.80;99.90
17891;DHT22;9071;48.220;14.480;2023-07-13T07:16:58;20.80;99.90
17891;DHT22;9071;48.220;14.480;2023-07-13T07:22:00;20.80;99.90
17891;DHT22;9071;48.220;14.480;2023-07-13T07:27:04;21.00;99.90
17891;DHT22;9071;48.220;14.480;2023-07-13T07:32:07;21.30;99.90
17891;DHT22;9071;48.220;14.480;2023-07-13T07:37:11;21.70;99.90
17891;DHT22;9071;48.220;14.480;2023-07-13T07:42:15;22.00;99.90
17891;DHT22;9071;48.220;14.480;2023-07-13T07:47:17;22.00;99.90
17891;DHT22;9071;48.220;14.480;2023-07-13T07:52:23;21.90;99.90
17891;DHT22;9071;48.220;14.480;2023-07-13T07:57:27;22.00;99.90
17891;DHT22;9071;48.220;14.480;2023-07-13T08:02:29;22.10;99.90
17891;DHT22;9071;48.220;14.480;2023-07-13T08:07:31;22.60;99.90
17891;DHT22;9071;48.220;14.480;2023-07-13T08:12:35;23.10;99.90
17891;DHT22;9071;48.220;14.480;2023-07-13T08:17:37;23.30;99.90
17891;DHT22;9071;48.220;14.480;2023-07-13T08:22:40;23.40;99.90
17891;DHT22;9071;48.220;14.480;2023-07-13T08:27:43;23.60;99.90
17891;DHT22;9071;48.220;14.480;2023-07-13T08:32:45;23.60;99.90
17891;DHT22;9071;48.220;14.480;2023-07-13T08:37:47;23.90;99.90
17891;DHT22;9071;48.220;14.480;2023-07-13T08:42:54;24.00;99.90
17891;DHT22;9071;48.220;14.480;2023-07-13T08:48:02;24.00;99.90
17891;DHT22;9071;48.220;14.480;2023-07-13T08:53:06;23.80;99.90
17891;DHT22;9071;48.220;14.480;2023-07-13T08:58:13;23.80;99.90
17891;DHT22;9071;48.220;14.480;2023-07-13T09:03:20;23.80;99.90
17891;DHT22;9071;48.220;14.480;2023-07-13T09:08:37;24.60;99.90
17891;DHT22;9071;48.220;14.480;2023-07-13T09:13:50;24.70;99.90
17891;DHT22;9071;48.220;14.480;2023-07-13T09:18:58;24.10;99.90
17891;DHT22;9071;48.220;14.480;2023-07-13T09:24:28;23.90;99.90
17891;DHT22;9071;48.220;14.480;2023-07-13T09:29:34;23.70;99.90
17891;DHT22;9071;48.220;14.480;2023-07-13T09:34:36;23.80;99.90
17891;DHT22;9071;48.220;14.480;2023-07-13T09:39:40;23.70;99.90
17891;DHT22;9071;48.220;14.480;2023-07-13T09:44:52;23.80;99.90
17891;DHT22;9071;48.220;14.480;2023-07-13T09:49:56;24.10;99.90
17891;DHT22;9071;48.220;14.480;2023-07-13T09:54:59;24.40;99.90
17891;DHT22;9071;48.220;14.480;2023-07-13T10:00:05;24.50;99.90
17891;DHT22;9071;48.220;14.480;2023-07-13T10:05:13;24.60;99.90
17891;DHT22;9071;48.220;14.480;2023-07-13T10:10:18;24.40;99.90
17891;DHT22;9071;48.220;14.480;2023-07-13T10:15:24;24.40;99.90
17891;DHT22;9071;48.220;14.480;2023-07-13T10:20:27;24.40;99.90
17891;DHT22;9071;48.220;14.480;2023-07-13T10:25:33;24.40;99.90
17891;DHT22;9071;48.220;14.480;2023-07-13T10:30:42;24.30;99.90
17891;DHT22;9071;48.220;14.480;2023-07-13T10:35:45;24.30;99.90
17891;DHT22;9071;48.220;14.480;2023-07-13T10:40:54;24.70;99.90
17891;DHT22;9071;48.220;14.480;2023-07-13T10:45:59;25.10;99.90
17891;DHT22;9071;48.220;14.480;2023-07-13T10:51:04;25.20;99.90
17891;DHT22;9071;48.220;14.480;2023-07-13T10:56:20;25.20;99.90
17891;DHT22;9071;48.220;14.480;2023-07-13T11:01:25;25.00;99.90
17891;DHT22;9071;48.220;14.480;2023-07-13T11:06:37;24.80;99.90
17891;DHT22;9071;48.220;14.480;2023-07-13T11:11:40;24.40;99.90
17891;DHT22;9071;48.220;14.480;2023-07-13T11:16:46;24.00;99.90
17891;DHT22;9071;48.220;14.480;2023-07-13T11:22:13;23.80;99.90
17891;DHT22;9071;48.220;14.480;2023-07-13T11:27:25;23.70;99.90
17891;DHT22;9071;48.220;14.480;2023-07-13T11:32:31;23.50;99.90
17891;DHT22;9071;48.220;14.480;2023-07-13T11:37:34;23.30;99.90
17891;DHT22;9071;48.220;14.480;2023-07-13T11:42:36;23.20;99.90
17891;DHT22;9071;48.220;14.480;2023-07-13T11:47:42;23.00;99.90
17891;DHT22;9071;48.220;14.480;2023-07-13T11:52:45;22.90;99.90
17891;DHT22;9071;48.220;14.480;2023-07-13T11:57:50;22.70;99.90
17891;DHT22;9071;48.220;14.480;2023-07-13T12:02:57;22.90;99.90
17891;DHT22;9071;48.220;14.480;2023-07-13T12:08:09;23.40;99.90
17891;DHT22;9071;48.220;14.480;2023-07-13T12:13:12;24.10;99.90
17891;DHT22;9071;48.220;14.480;2023-07-13T12:18:19;24.30;99.90
17891;DHT22;9071;48.220;14.480;2023-07-13T12:23:25;24.10;99.90
17891;DHT22;9071;48.220;14.480;2023-07-13T12:28:33;23.80;99.90
17891;DHT22;9071;48.220;14.480;2023-07-13T12:33:39;23.80;99.90
17891;DHT22;9071;48.220;14.480;2023-07-13T12:38:45;24.40;99.90
17891;DHT22;9071;48.220;14.480;2023-07-13T12:43:49;24.60;99.90
17891;DHT22;9071;48.220;14.480;2023-07-13T12:48:54;24.40;99.90
17891;DHT22;9071;48.220;14.480;2023-07-13T12:53:59;24.20;99.90
17891;DHT22;9071;48.220;14.480;2023-07-13T12:59:16;24.10;99.90
17891;DHT22;9071;48.220;14.480;2023-07-13T13:04:20;24.00;99.90
17891;DHT22;9071;48.220;14.480;2023-07-13T13:09:23;23.80;99.90
17891;DHT22;9071;48.220;14.480;2023-07-13T13:14:25;24.20;99.90
17891;DHT22;9071;48.220;14.480;2023-07-13T13:19:29;24.90;99.90
17891;DHT22;9071;48.220;14.480;2023-07-13T13:24:31;25.00;99.90
17891;DHT22;9071;48.220;14.480;2023-07-13T13:29:36;24.50;99.90
17891;DHT22;9071;48.220;14.480;2023-07-13T13:34:42;24.30;99.90
17891;DHT22;9071;48.220;14.480;2023-07-13T13:39:45;24.10;99.90
17891;DHT22;9071;48.220;14.480;2023-07-13T13:44:47;23.90;99.90
17891;DHT22;9071;48.220;14.480;2023-07-13T13:49:50;23.80;99.90
17891;DHT22;9071;48.220;14.480;2023-07-13T13:54:52;23.60;99.90
17891;DHT22;9071;48.220;14.480;2023-07-13T13:59:56;23.90;99.90
17891;DHT22;9071;48.220;14.480;2023-07-13T14:05:02;23.80;99.90
17891;DHT22;9071;48.220;14.480;2023-07-13T14:10:11;23.90;99.90
17891;DHT22;9071;48.220;14.480;2023-07-13T14:15:21;23.90;99.90
17891;DHT22;9071;48.220;14.480;2023-07-13T14:20:25;23.80;99.90
17891;DHT22;9071;48.220;14.480;2023-07-13T14:25:28;23.80;99.90
17891;DHT22;9071;48.220;14.480;2023-07-13T14:30:30;24.10;99.90
17891;DHT22;9071;48.220;14.480;2023-07-13T14:35:33;24.60;99.90
17891;DHT22;9071;48.220;14.480;2023-07-13T14:40:35;25.10;99.90
17891;DHT22;9071;48.220;14.480;2023-07-13T14:45:40;25.20;99.90
17891;DHT22;9071;48.220;14.480;2023-07-13T14:50:44;25.10;99.90
17891;DHT22;9071;48.220;14.480;2023-07-13T14:55:46;24.80;99.90
17891;DHT22;9071;48.220;14.480;2023-07-13T15:00:49;24.70;99.90
17891;DHT22;9071;48.220;14.480;2023-07-13T15:05:55;24.90;99.90
17891;DHT22;9071;48.220;14.480;2023-07-13T15:10:57;25.50;99.90
17891;DHT22;9071;48.220;14.480;2023-07-13T15:16:01;25.80;99.90
17891;DHT22;9071;48.220;14.480;2023-07-13T15:21:08;26.10;99.90
17891;DHT22;9071;48.220;14.480;2023-07-13T15:26:12;26.10;99.90
17891;DHT22;9071;48.220;14.480;2023-07-13T15:31:21;26.20;99.90
17891;DHT22;9071;48.220;14.480;2023-07-13T15:36:26;26.20;99.90
17891;DHT22;9071;48.220;14.480;2023-07-13T15:41:28;25.90;99.90
17891;DHT22;9071;48.220;14.480;2023-07-13T15:46:30;26.00;99.90
17891;DHT22;9071;48.220;14.480;2023-07-13T15:51:34;26.00;99.90
17891;DHT22;9071;48.220;14.480;2023-07-13T15:56:37;26.00;99.90
17891;DHT22;9071;48.220;14.480;2023-07-13T16:01:41;26.00;99.90
17891;DHT22;9071;48.220;14.480;2023-07-13T16:06:49;25.80;99.90
17891;DHT22;9071;48.220;14.480;2023-07-13T16:11:51;25.60;99.90
17891;DHT22;9071;48.220;14.480;2023-07-13T16:16:55;25.60;99.90
17891;DHT22;9071;48.220;14.480;2023-07-13T16:21:59;25.50;99.90
17891;DHT22;9071;48.220;14.480;2023-07-13T16:27:04;25.50;99.90
17891;DHT22;9071;48.220;14.480;2023-07-13T16:32:10;25.50;99.90
17891;DHT22;9071;48.220;14.480;2023-07-13T16:37:17;25.40;99.90
17891;DHT22;9071;48.220;14.480;2023-07-13T16:42:19;25.40;99.90
17891;DHT22;9071;48.220;14.480;2023-07-13T16:47:23;25.30;99.90
17891;DHT22;9071;48.220;14.480;2023-07-13T16:52:26;25.30;99.90
17891;DHT22;9071;48.220;14.480;2023-07-13T16:57:32;25.10;99.90
17891;DHT22;9071;48.220;14.480;2023-07-13T17:02:36;25.20;99.90
17891;DHT22;9071;48.220;14.480;2023-07-13T17:07:40;25.30;99.90
17891;DHT22;9071;48.220;14.480;2023-07-13T17:12:43;25.20;99.90
17891;DHT22;9071;48.220;14.480;2023-07-13T17:17:46;25.00;99.90
17891;DHT22;9071;48.220;14.480;2023-07-13T17:22:50;24.70;99.90
17891;DHT22;9071;48.220;14.480;2023-07-13T17:27:53;24.50;99.90
17891;DHT22;9071;48.220;14.480;2023-07-13T17:32:56;24.40;99.90
17891;DHT22;9071;48.220;14.480;2023-07-13T17:38:02;24.20;99.90
17891;DHT22;9071;48.220;14.480;2023-07-13T17:43:05;24.20;99.90
17891;DHT22;9071;48.220;14.480;2023-07-13T17:48:09;23.90;99.90
17891;DHT22;9071;48.220;14.480;2023-07-13T17:53:15;23.70;99.90
17891;DHT22;9071;48.220;14.480;2023-07-13T17:58:18;23.50;99.90
17891;DHT22;9071;48.220;14.480;2023-07-13T18:03:23;23.40;99.90
17891;DHT22;9071;48.220;14.480;2023-07-13T18:08:31;23.30;99.90
17891;DHT22;9071;48.220;14.480;2023-07-13T18:13:33;23.10;99.90
17891;DHT22;9071;48.220;14.480;2023-07-13T18:18:40;23.00;99.90
17891;DHT22;9071;48.220;14.480;2023-07-13T18:23:45;22.90;99.90
17891;DHT22;9071;48.220;14.480;2023-07-13T18:28:47;22.90;99.90
17891;DHT22;9071;48.220;14.480;2023-07-13T18:33:50;22.90;99.90
17891;DHT22;9071;48.220;14.480;2023-07-13T18:38:55;22.90;99.90
17891;DHT22;9071;48.220;14.480;2023-07-13T18:43:58;22.70;99.90
17891;DHT22;9071;48.220;14.480;2023-07-13T18:49:01;22.50;99.90
17891;DHT22;9071;48.220;14.480;2023-07-13T18:54:11;22.20;99.90
17891;DHT22;9071;48.220;14.480;2023-07-13T18:59:14;22.00;99.90
17891;DHT22;9071;48.220;14.480;2023-07-13T19:04:30;21.80;99.90
17891;DHT22;9071;48.220;14.480;2023-07-13T19:09:34;21.50;99.90
17891;DHT22;9071;48.220;14.480;2023-07-13T19:14:36;21.30;99.90
17891;DHT22;9071;48.220;14.480;2023-07-13T19:19:38;21.20;99.90
17891;DHT22;9071;48.220;14.480;2023-07-13T19:24:42;21.00;99.90
17891;DHT22;9071;48.220;14.480;2023-07-13T19:29:44;20.90;99.90
17891;DHT22;9071;48.220;14.480;2023-07-13T19:34:46;20.90;99.90
17891;DHT22;9071;48.220;14.480;2023-07-13T19:39:51;20.70;99.90
17891;DHT22;9071;48.220;14.480;2023-07-13T19:44:55;20.50;99.90
17891;DHT22;9071;48.220;14.480;2023-07-13T19:49:57;20.30;99.90
17891;DHT22;9071;48.220;14.480;2023-07-13T19:55:04;20.10;99.90
17891;DHT22;9071;48.220;14.480;2023-07-13T20:00:14;20.00;99.90
17891;DHT22;9071;48.220;14.480;2023-07-13T20:05:19;19.90;99.90
17891;DHT22;9071;48.220;14.480;2023-07-13T20:10:24;19.80;99.90
17891;DHT22;9071;48.220;14.480;2023-07-13T20:15:29;19.60;99.90
17891;DHT22;9071;48.220;14.480;2023-07-13T20:20:35;19.60;99.90
17891;DHT22;9071;48.220;14.480;2023-07-13T20:25:40;19.50;99.90
17891;DHT22;9071;48.220;14.480;2023-07-13T20:30:45;19.50;99.90
17891;DHT22;9071;48.220;14.480;2023-07-13T20:35:48;19.30;99.90
17891;DHT22;9071;48.220;14.480;2023-07-13T20:40:52;19.20;99.90
17891;DHT22;9071;48.220;14.480;2023-07-13T20:45:57;19.10;99.90
17891;DHT22;9071;48.220;14.480;2023-07-13T20:51:00;19.10;99.90
17891;DHT22;9071;48.220;14.480;2023-07-13T20:56:11;19.00;99.90
17891;DHT22;9071;48.220;14.480;2023-07-13T21:01:15;19.00;99.90
17891;DHT22;9071;48.220;14.480;2023-07-13T21:06:18;18.90;99.90
17891;DHT22;9071;48.220;14.480;2023-07-13T21:11:22;18.80;99.90
17891;DHT22;9071;48.220;14.480;2023-07-13T21:16:26;18.70;99.90
17891;DHT22;9071;48.220;14.480;2023-07-13T21:21:28;18.60;99.90
17891;DHT22;9071;48.220;14.480;2023-07-13T21:26:32;18.50;99.90
17891;DHT22;9071;48.220;14.480;2023-07-13T21:31:35;18.40;99.90
17891;DHT22;9071;48.220;14.480;2023-07-13T21:36:38;18.30;99.90
17891;DHT22;9071;48.220;14.480;2023-07-13T21:41:42;18.30;99.90
17891;DHT22;9071;48.220;14.480;2023-07-13T21:46:44;18.20;99.90
17891;DHT22;9071;48.220;14.480;2023-07-13T21:51:46;18.10;99.90
17891;DHT22;9071;48.220;14.480;2023-07-13T21:56:50;17.90;99.90
17891;DHT22;9071;48.220;14.480;2023-07-13T22:01:52;17.70;99.90
17891;DHT22;9071;48.220;14.480;2023-07-13T22:06:55;17.60;99.90
17891;DHT22;9071;48.220;14.480;2023-07-13T22:11:59;17.60;99.90
17891;DHT22;9071;48.220;14.480;2023-07-13T22:17:05;17.50;99.90
17891;DHT22;9071;48.220;14.480;2023-07-13T22:22:07;17.50;99.90
17891;DHT22;9071;48.220;14.480;2023-07-13T22:27:11;17.50;99.90
17891;DHT22;9071;48.220;14.480;2023-07-13T22:32:13;17.50;99.90
17891;DHT22;9071;48.220;14.480;2023-07-13T22:37:18;17.60;99.90
17891;DHT22;9071;48.220;14.480;2023-07-13T22:42:22;17.60;99.90
17891;DHT22;9071;48.220;14.480;2023-07-13T22:47:24;17.60;99.90
17891;DHT22;9071;48.220;14.480;2023-07-13T22:52:26;17.60;99.90
17891;DHT22;9071;48.220;14.480;2023-07-13T22:57:30;17.60;99.90
17891;DHT22;9071;48.220;14.480;2023-07-13T23:02:32;17.50;99.90
17891;DHT22;9071;48.220;14.480;2023-07-13T23:07:34;17.40;99.90
17891;DHT22;9071;48.220;14.480;2023-07-13T23:12:38;17.30;99.90
17891;DHT22;9071;48.220;14.480;2023-07-13T23:17:42;17.30;99.90
17891;DHT22;9071;48.220;14.480;2023-07-13T23:22:46;17.30;99.90
17891;DHT22;9071;48.220;14.480;2023-07-13T23:27:50;17.20;99.90
17891;DHT22;9071;48.220;14.480;2023-07-13T23:33:00;17.10;99.90
17891;DHT22;9071;48.220;14.480;2023-07-13T23:38:02;17.00;99.90
17891;DHT22;9071;48.220;14.480;2023-07-13T23:43:06;16.80;99.90
17891;DHT22;9071;48.220;14.480;2023-07-13T23:48:11;16.60;99.90
17891;DHT22;9071;48.220;14.480;2023-07-13T23:53:15;16.40;99.90
17891;DHT22;9071;48.220;14.480;2023-07-13T23:58:18;16.40;99.90
